Time;durP1;ratioP1;P1;durP2;ratioP2;P2;SDS_P1;SDS_P2;PMS_P1;PMS_P2;Temp;Humidity;BMP_temperature;BMP_pressure;BME280_temperature;BME280_humidity;BME280_pressure;Samples;Min_cycle;Max_cycle;Signal;HPM_P1;HPM_P2
2024/01/31 00:01:35;;;;;;;5.80;5.30;;;18.60;57.60;;;;;;5036162;28;20402;-76
2024/01/31 00:04:01;;;;;;;5.60;5.10;;;18.60;57.50;;;;;;5041176;28;20200;-76
2024/01/31 00:06:27;;;;;;;5.70;5.20;;;18.60;57.60;;;;;;5053945;28;20214;-76
2024/01/31 00:08:53;;;;;;;5.57;5.07;;;18.60;57.60;;;;;;5059090;28;20195;-76
2024/01/31 00:11:22;;;;;;;5.45;4.95;;;18.60;57.50;;;;;;5057200;28;20189;-76
2024/01/31 00:13:48;;;;;;;5.80;5.10;;;18.60;57.50;;;;;;5055146;28;20186;-76
2024/01/31 00:16:14;;;;;;;5.22;4.72;;;18.60;57.60;;;;;;5047613;28;20198;-76
2024/01/31 00:18:40;;;;;;;5.38;4.78;;;18.60;57.50;;;;;;5060864;28;20618;-76
2024/01/31 00:21:06;;;;;;;5.32;4.82;;;18.60;57.50;;;;;;5058394;28;20182;-76
2024/01/31 00:23:31;;;;;;;5.00;4.50;;;18.60;57.50;;;;;;5053722;28;20258;-76
2024/01/31 00:25:57;;;;;;;4.70;4.30;;;18.60;57.50;;;;;;5051981;28;20213;-76
2024/01/31 00:28:24;;;;;;;5.30;4.80;;;18.60;57.50;;;;;;5065791;28;20193;-76
2024/01/31 00:30:50;;;;;;;5.13;4.63;;;18.60;57.50;;;;;;5052955;28;20278;-76
2024/01/31 00:33:16;;;;;;;5.07;4.57;;;18.60;57.50;;;;;;5035692;28;20301;-76
2024/01/31 00:35:42;;;;;;;4.75;4.35;;;18.60;57.50;;;;;;5051959;28;20206;-76
2024/01/31 00:38:08;;;;;;;4.80;4.40;;;18.60;57.50;;;;;;5053471;28;20680;-76
2024/01/31 00:40:33;;;;;;;5.50;4.95;;;18.60;57.50;;;;;;5053201;28;20186;-76
2024/01/31 00:42:59;;;;;;;5.25;4.82;;;18.60;57.60;;;;;;5053264;28;20183;-76
2024/01/31 00:45:25;;;;;;;4.50;4.13;;;18.50;57.50;;;;;;5050911;28;20239;-76
2024/01/31 00:47:51;;;;;;;4.70;4.30;;;18.60;57.60;;;;;;5052877;28;20193;-76
2024/01/31 00:50:16;;;;;;;4.97;4.57;;;18.50;57.50;;;;;;5051870;28;20194;-76
2024/01/31 00:52:42;;;;;;;4.97;4.57;;;18.50;57.50;;;;;;5051668;28;20224;-76
2024/01/31 00:55:08;;;;;;;5.18;4.68;;;18.60;57.60;;;;;;5087321;28;20293;-76
2024/01/31 00:57:34;;;;;;;5.03;4.63;;;18.60;57.60;;;;;;5043791;28;20186;-76
2024/01/31 01:00:04;;;;;;;5.03;4.53;;;18.50;57.50;;;;;;5052917;28;20232;-76
2024/01/31 01:02:35;;;;;;;4.63;4.13;;;18.60;57.50;;;;;;5051580;28;20268;-76
2024/01/31 01:05:01;;;;;;;5.30;4.70;;;18.60;57.60;;;;;;5083901;28;20206;-76
2024/01/31 01:07:27;;;;;;;5.10;4.60;;;18.60;57.50;;;;;;5056672;28;20190;-76
2024/01/31 01:09:52;;;;;;;4.55;4.15;;;18.60;57.50;;;;;;5034680;28;20193;-76
2024/01/31 01:12:18;;;;;;;4.53;4.13;;;18.60;57.50;;;;;;5056961;28;20703;-76
2024/01/31 01:14:44;;;;;;;4.57;4.20;;;18.50;57.40;;;;;;5050205;28;20186;-76
2024/01/31 01:17:09;;;;;;;4.53;4.13;;;18.50;57.40;;;;;;5085103;28;20186;-76
2024/01/31 01:19:35;;;;;;;4.95;4.55;;;18.60;57.50;;;;;;5052524;28;20192;-76
2024/01/31 01:22:01;;;;;;;4.93;4.53;;;18.60;57.50;;;;;;5084984;28;20196;-76
2024/01/31 01:24:27;;;;;;;4.60;4.22;;;18.50;57.40;;;;;;5072942;28;20222;-76
2024/01/31 01:26:53;;;;;;;4.43;4.03;;;18.60;57.50;;;;;;5056395;28;20285;-76
2024/01/31 01:29:19;;;;;;;4.50;4.10;;;18.50;57.40;;;;;;5067827;28;20186;-76
2024/01/31 01:31:44;;;;;;;5.03;4.60;;;18.60;57.50;;;;;;5045987;28;20214;-76
2024/01/31 01:34:11;;;;;;;3.92;3.63;;;18.50;57.40;;;;;;5050930;28;20239;-76
2024/01/31 01:36:37;;;;;;;4.60;4.20;;;18.50;57.40;;;;;;5044614;28;20201;-76
2024/01/31 01:39:03;;;;;;;4.75;4.35;;;18.50;57.40;;;;;;5051236;28;20187;-76
2024/01/31 01:41:29;;;;;;;5.13;4.65;;;18.50;57.40;;;;;;5052500;28;20194;-76
2024/01/31 01:43:55;;;;;;;4.40;4.10;;;18.50;57.40;;;;;;5055706;28;20174;-76
2024/01/31 01:46:22;;;;;;;5.15;4.65;;;18.50;57.50;;;;;;5063695;28;20213;-76
2024/01/31 01:48:50;;;;;;;5.40;4.90;;;18.50;57.50;;;;;;5058037;28;20189;-75
2024/01/31 01:51:19;;;;;;;4.85;4.43;;;18.50;57.40;;;;;;5050846;28;20316;-76
2024/01/31 01:53:48;;;;;;;5.93;4.82;;;18.50;57.40;;;;;;5034344;28;20189;-75
2024/01/31 01:56:15;;;;;;;5.07;4.57;;;18.50;57.40;;;;;;5055343;28;20244;-76
2024/01/31 01:58:41;;;;;;;4.50;4.05;;;18.50;57.40;;;;;;5051741;28;20183;-76
2024/01/31 02:01:12;;;;;;;3.75;3.45;;;18.50;57.30;;;;;;5050639;28;20182;-76
2024/01/31 02:03:38;;;;;;;6.10;4.32;;;18.50;57.40;;;;;;5038709;28;20186;-76
2024/01/31 02:06:04;;;;;;;4.82;4.43;;;18.50;57.30;;;;;;5059461;28;20228;-76
2024/01/31 02:08:30;;;;;;;4.55;4.15;;;18.50;57.40;;;;;;5054510;28;20190;-76
2024/01/31 02:10:56;;;;;;;4.78;4.38;;;18.50;57.40;;;;;;5050503;28;20214;-76
2024/01/31 02:13:23;;;;;;;4.35;3.83;;;18.50;57.30;;;;;;5033700;28;20245;-76
2024/01/31 02:15:57;;;;;;;4.30;4.00;;;18.50;57.40;;;;;;5056130;28;20198;-76
2024/01/31 02:18:28;;;;;;;4.85;4.45;;;18.50;57.40;;;;;;5050497;28;20212;-76
2024/01/31 02:20:54;;;;;;;4.60;4.20;;;18.50;57.30;;;;;;5033891;28;20190;-76
2024/01/31 02:23:21;;;;;;;4.28;3.95;;;18.50;57.40;;;;;;5084064;28;20206;-76
2024/01/31 02:25:48;;;;;;;4.55;4.15;;;18.50;57.40;;;;;;5049946;28;20234;-76
2024/01/31 02:28:14;;;;;;;4.47;4.03;;;18.50;58.00;;;;;;5051657;28;20281;-76
2024/01/31 02:30:40;;;;;;;4.47;4.07;;;18.50;57.40;;;;;;5055800;28;20261;-76
2024/01/31 02:33:06;;;;;;;4.30;3.90;;;18.50;57.50;;;;;;5084554;28;20222;-76
2024/01/31 02:35:34;;;;;;;4.15;3.75;;;18.50;57.40;;;;;;5069946;28;20202;-76
2024/01/31 02:38:01;;;;;;;4.50;4.10;;;18.50;57.40;;;;;;5051343;28;20193;-76
2024/01/31 02:40:29;;;;;;;4.18;3.78;;;18.50;57.50;;;;;;5082818;28;20197;-76
2024/01/31 02:42:56;;;;;;;4.63;4.22;;;18.50;57.40;;;;;;5055377;28;20190;-76
2024/01/31 02:45:23;;;;;;;4.03;3.72;;;18.50;57.50;;;;;;5087440;28;20218;-76
2024/01/31 02:47:49;;;;;;;4.72;4.32;;;18.50;57.40;;;;;;5037784;28;20183;-76
2024/01/31 02:50:15;;;;;;;4.53;4.20;;;18.50;57.40;;;;;;5054180;28;20645;-76
2024/01/31 02:52:41;;;;;;;4.25;3.85;;;18.50;57.40;;;;;;5066548;28;20214;-76
2024/01/31 02:55:07;;;;;;;4.03;3.72;;;18.50;57.40;;;;;;5055066;28;20253;-76
2024/01/31 02:57:34;;;;;;;4.50;4.10;;;18.50;57.40;;;;;;5038762;28;20187;-76
2024/01/31 03:00:01;;;;;;;4.57;4.18;;;18.50;57.40;;;;;;5051456;28;20179;-76
2024/01/31 03:02:27;;;;;;;4.40;4.00;;;18.50;57.40;;;;;;5091428;28;20190;-76
2024/01/31 03:04:52;;;;;;;3.92;3.63;;;18.50;57.40;;;;;;5053904;28;20202;-76
2024/01/31 03:07:18;;;;;;;4.20;3.88;;;18.50;57.40;;;;;;5053684;28;20221;-76
2024/01/31 03:09:45;;;;;;;4.25;3.85;;;18.50;57.40;;;;;;5058797;28;20317;-76
2024/01/31 03:12:11;;;;;;;3.97;3.65;;;18.50;57.40;;;;;;5053728;28;20241;-76
2024/01/31 03:14:36;;;;;;;4.50;4.10;;;18.50;57.40;;;;;;5054631;28;20210;-76
2024/01/31 03:17:02;;;;;;;4.50;4.10;;;18.50;57.40;;;;;;5053907;28;20245;-76
2024/01/31 03:19:31;;;;;;;4.38;3.97;;;18.50;57.40;;;;;;5053493;28;20183;-76
2024/01/31 03:21:58;;;;;;;4.10;3.70;;;18.50;57.40;;;;;;5062336;28;20269;-76
2024/01/31 03:24:24;;;;;;;4.75;4.30;;;18.50;58.00;;;;;;5053481;28;20272;-76
2024/01/31 03:26:51;;;;;;;4.90;4.50;;;18.50;57.40;;;;;;5053528;28;20214;-76
2024/01/31 03:29:17;;;;;;;4.75;4.35;;;18.50;57.50;;;;;;5054424;28;20194;-76
2024/01/31 03:31:43;;;;;;;4.43;4.03;;;18.50;57.40;;;;;;5053106;28;20238;-76
2024/01/31 03:34:08;;;;;;;3.97;3.67;;;18.50;57.40;;;;;;5065722;28;20214;-76
2024/01/31 03:36:35;;;;;;;4.22;3.92;;;18.50;57.40;;;;;;5059794;28;20205;-76
2024/01/31 03:39:00;;;;;;;4.65;4.25;;;18.50;57.40;;;;;;5049638;28;20202;-76
2024/01/31 03:41:27;;;;;;;4.38;3.97;;;18.50;57.50;;;;;;5068361;28;20179;-76
2024/01/31 03:43:54;;;;;;;4.63;4.22;;;18.50;57.40;;;;;;5072036;28;20190;-76
2024/01/31 03:46:21;;;;;;;4.30;3.95;;;18.50;57.40;;;;;;5056115;28;20260;-76
2024/01/31 03:48:47;;;;;;;4.25;3.95;;;18.50;57.40;;;;;;5053074;28;20194;-76
2024/01/31 03:51:21;;;;;;;4.68;4.28;;;18.50;57.40;;;;;;5052903;28;20195;-76
2024/01/31 03:53:48;;;;;;;4.35;4.00;;;18.50;57.40;;;;;;5053101;28;20193;-76
2024/01/31 03:56:14;;;;;;;4.00;3.70;;;18.50;57.40;;;;;;5069549;28;20203;-76
2024/01/31 03:58:41;;;;;;;4.35;3.95;;;18.50;57.40;;;;;;5054272;28;20186;-76
2024/01/31 04:01:07;;;;;;;4.20;3.80;;;18.50;57.40;;;;;;5069368;28;20193;-76
2024/01/31 04:03:38;;;;;;;4.70;4.30;;;18.50;57.40;;;;;;5069426;28;20190;-76
2024/01/31 04:06:03;;;;;;;4.13;3.72;;;18.50;57.40;;;;;;5053798;28;20214;-76
2024/01/31 04:08:29;;;;;;;4.00;3.70;;;18.50;57.50;;;;;;5086229;28;20201;-76
2024/01/31 04:10:55;;;;;;;3.72;3.42;;;18.50;57.40;;;;;;5039308;28;20244;-76
2024/01/31 04:13:21;;;;;;;4.20;3.80;;;18.50;57.40;;;;;;5052459;28;20207;-76
2024/01/31 04:15:47;;;;;;;4.30;3.97;;;18.50;57.50;;;;;;5052278;28;20743;-76
2024/01/31 04:18:13;;;;;;;4.30;3.90;;;18.50;57.50;;;;;;5086343;28;20658;-76
2024/01/31 04:20:40;;;;;;;4.47;4.07;;;18.50;57.40;;;;;;5055028;28;20187;-76
2024/01/31 04:23:07;;;;;;;4.93;4.40;;;18.50;57.50;;;;;;5069074;28;20213;-76
2024/01/31 04:25:33;;;;;;;4.32;3.92;;;18.50;57.40;;;;;;5052330;28;20223;-76
2024/01/31 04:27:59;;;;;;;4.85;4.45;;;18.50;57.40;;;;;;5069021;28;20202;-76
2024/01/31 04:30:25;;;;;;;4.60;4.20;;;18.50;57.40;;;;;;5068903;28;20205;-76
2024/01/31 04:32:50;;;;;;;4.60;4.20;;;18.50;57.40;;;;;;5053383;28;20202;-76
2024/01/31 04:35:16;;;;;;;4.43;4.03;;;18.50;57.40;;;;;;5069111;28;20210;-76
2024/01/31 04:37:42;;;;;;;4.63;4.22;;;18.50;57.30;;;;;;5040090;28;20177;-76
2024/01/31 04:40:09;;;;;;;4.40;4.00;;;18.50;57.40;;;;;;5063860;28;20190;-76
2024/01/31 04:42:36;;;;;;;5.28;4.78;;;18.50;57.40;;;;;;5053265;28;20190;-76
2024/01/31 04:45:03;;;;;;;4.60;4.20;;;18.50;57.30;;;;;;5088042;28;20221;-76
2024/01/31 04:47:29;;;;;;;4.32;4.03;;;18.50;57.40;;;;;;5068465;28;20194;-76
2024/01/31 04:49:56;;;;;;;3.95;3.65;;;18.50;57.30;;;;;;5051951;28;20205;-76
2024/01/31 04:52:22;;;;;;;4.28;3.97;;;18.50;57.30;;;;;;5040282;28;20210;-76
2024/01/31 04:54:50;;;;;;;4.40;4.03;;;18.50;57.40;;;;;;5034966;28;20193;-76
2024/01/31 04:57:16;;;;;;;4.85;4.45;;;18.50;57.30;;;;;;5068362;28;20198;-76
2024/01/31 04:59:42;;;;;;;4.60;4.20;;;18.50;57.40;;;;;;5055783;28;20208;-76
2024/01/31 05:02:09;;;;;;;5.45;4.60;;;18.50;57.40;;;;;;5067008;28;20190;-76
2024/01/31 05:04:36;;;;;;;4.60;4.20;;;18.50;57.40;;;;;;5085095;28;20213;-76
2024/01/31 05:07:03;;;;;;;4.65;4.25;;;18.50;57.30;;;;;;5054325;28;20190;-76
2024/01/31 05:09:29;;;;;;;4.78;4.38;;;18.50;57.40;;;;;;5052816;28;20222;-76
2024/01/31 05:11:55;;;;;;;4.40;4.00;;;18.50;57.40;;;;;;5057807;28;20214;-76
2024/01/31 05:14:20;;;;;;;4.72;4.32;;;18.50;57.40;;;;;;5070116;28;20189;-76
2024/01/31 05:16:47;;;;;;;4.60;4.18;;;18.50;57.40;;;;;;5061555;28;20201;-76
2024/01/31 05:19:13;;;;;;;4.50;4.10;;;18.50;57.40;;;;;;5052749;28;20220;-76
2024/01/31 05:21:49;;;;;;;4.50;4.10;;;18.50;57.60;;;;;;5040696;28;20258;-75
2024/01/31 05:24:16;;;;;;;4.63;4.22;;;18.50;57.40;;;;;;5067778;28;20197;-76
2024/01/31 05:26:47;;;;;;;4.50;4.10;;;18.50;57.30;;;;;;5034495;28;20222;-76
2024/01/31 05:29:14;;;;;;;4.85;4.45;;;18.50;57.30;;;;;;5084820;28;20195;-76
2024/01/31 05:31:40;;;;;;;4.43;4.03;;;18.50;57.30;;;;;;5050973;28;20666;-76
2024/01/31 05:34:06;;;;;;;5.00;4.40;;;18.50;57.30;;;;;;5084531;28;20194;-75
2024/01/31 05:36:32;;;;;;;4.82;4.43;;;18.50;57.40;;;;;;5052100;28;20212;-77
2024/01/31 05:38:58;;;;;;;4.88;4.43;;;18.50;57.40;;;;;;5054080;28;20240;-76
2024/01/31 05:41:24;;;;;;;5.30;4.80;;;18.50;57.40;;;;;;5042760;28;20219;-76
2024/01/31 05:43:49;;;;;;;4.72;4.32;;;18.50;57.30;;;;;;5058884;28;20231;-76
2024/01/31 05:46:18;;;;;;;4.35;3.92;;;18.50;57.30;;;;;;5055963;28;20214;-76
2024/01/31 05:48:47;;;;;;;4.65;4.25;;;18.40;57.30;;;;;;5051060;28;20277;-76
2024/01/31 05:51:14;;;;;;;4.90;4.45;;;18.40;57.30;;;;;;5053759;28;20281;-76
2024/01/31 05:53:41;;;;;;;5.07;4.68;;;18.50;57.40;;;;;;5051697;28;20260;-76
2024/01/31 05:56:07;;;;;;;4.97;4.57;;;18.40;57.20;;;;;;5085727;28;20217;-76
2024/01/31 05:58:33;;;;;;;4.53;4.20;;;18.40;57.30;;;;;;5053552;28;20186;-77
2024/01/31 06:00:59;;;;;;;5.35;4.85;;;18.40;57.30;;;;;;5058613;28;20277;-75
2024/01/31 06:03:27;;;;;;;4.88;4.47;;;18.40;57.30;;;;;;5067386;28;20194;-75
2024/01/31 06:05:52;;;;;;;5.22;4.70;;;18.50;57.30;;;;;;5058962;28;20210;-75
2024/01/31 06:08:18;;;;;;;5.47;5.00;;;18.40;57.30;;;;;;5050821;28;20246;-75
2024/01/31 06:10:46;;;;;;;5.20;4.78;;;18.40;57.30;;;;;;5084365;28;20182;-77
2024/01/31 06:13:12;;;;;;;5.32;4.82;;;18.40;57.30;;;;;;5050479;28;20203;-76
2024/01/31 06:15:39;;;;;;;5.15;4.65;;;18.40;57.20;;;;;;5073821;28;20762;-75
2024/01/31 06:18:04;;;;;;;4.88;4.47;;;18.40;57.20;;;;;;5052841;28;20229;-75
2024/01/31 06:20:30;;;;;;;5.18;4.75;;;18.40;57.80;;;;;;5053435;28;20190;-76
2024/01/31 06:22:56;;;;;;;4.80;4.40;;;18.40;57.20;;;;;;5088694;28;20198;-76
2024/01/31 06:25:22;;;;;;;5.30;4.80;;;18.40;57.30;;;;;;5058906;28;20210;-76
2024/01/31 06:27:48;;;;;;;4.75;4.28;;;18.40;57.20;;;;;;5087068;28;20213;-76
2024/01/31 06:30:20;;;;;;;5.47;4.97;;;18.40;57.20;;;;;;5035628;28;20657;-76
2024/01/31 06:32:47;;;;;;;5.47;4.97;;;18.40;57.30;;;;;;5086879;28;20213;-76
2024/01/31 06:35:14;;;;;;;5.35;4.95;;;18.40;57.20;;;;;;5052458;28;20245;-76
2024/01/31 06:37:40;;;;;;;4.68;4.28;;;18.40;57.20;;;;;;5052163;28;20194;-76
2024/01/31 06:40:10;;;;;;;5.40;4.90;;;18.40;57.20;;;;;;5051337;28;20233;-76
2024/01/31 06:42:35;;;;;;;5.28;4.78;;;18.40;57.20;;;;;;5084235;28;20248;-76
2024/01/31 06:45:02;;;;;;;5.78;5.28;;;18.40;57.30;;;;;;5076731;28;20289;-76
2024/01/31 06:47:28;;;;;;;5.63;5.10;;;18.40;57.20;;;;;;5051415;28;20290;-77
2024/01/31 06:49:55;;;;;;;5.18;4.70;;;18.40;57.30;;;;;;5051408;28;20190;-76
2024/01/31 06:52:21;;;;;;;5.22;4.65;;;18.40;57.20;;;;;;5050270;28;20274;-76
2024/01/31 06:54:47;;;;;;;5.20;4.70;;;18.40;57.20;;;;;;5050255;28;20186;-76
2024/01/31 06:57:12;;;;;;;5.85;5.20;;;18.40;57.20;;;;;;5084010;28;20654;-76
2024/01/31 06:59:38;;;;;;;5.80;5.20;;;18.40;57.20;;;;;;5049805;28;20190;-76
2024/01/31 07:02:04;;;;;;;5.53;5.03;;;18.40;57.20;;;;;;5030419;28;20196;-76
2024/01/31 07:04:30;;;;;;;5.78;5.28;;;18.40;57.10;;;;;;5030221;28;20191;-76
2024/01/31 07:06:55;;;;;;;5.47;5.00;;;18.40;57.20;;;;;;5034562;28;20473;-76
2024/01/31 07:09:21;;;;;;;5.43;4.85;;;18.40;57.20;;;;;;5051327;28;20191;-76
2024/01/31 07:11:47;;;;;;;5.85;5.25;;;18.40;57.10;;;;;;5042082;28;20285;-76
2024/01/31 07:14:13;;;;;;;6.07;5.47;;;18.40;57.10;;;;;;5050134;28;20183;-76
2024/01/31 07:16:38;;;;;;;5.10;4.70;;;18.50;57.20;;;;;;5050256;28;20293;-76
2024/01/31 07:19:04;;;;;;;5.38;4.88;;;18.40;57.10;;;;;;5049838;28;20201;-76
2024/01/31 07:21:30;;;;;;;5.43;4.93;;;18.40;57.20;;;;;;5043331;28;20187;-76
2024/01/31 07:23:56;;;;;;;5.75;5.25;;;18.40;57.20;;;;;;5049837;28;20679;-76
2024/01/31 07:26:23;;;;;;;5.40;4.90;;;18.40;57.20;;;;;;5052625;28;20304;-76
2024/01/31 07:28:50;;;;;;;5.38;4.88;;;18.40;57.20;;;;;;5054673;28;20197;-76
2024/01/31 07:31:16;;;;;;;5.75;5.18;;;18.40;57.20;;;;;;5053270;28;20194;-76
2024/01/31 07:33:42;;;;;;;5.68;5.18;;;18.40;57.20;;;;;;5053405;28;20229;-76
2024/01/31 07:36:08;;;;;;;5.72;5.20;;;18.40;57.20;;;;;;5033419;28;20214;-76
2024/01/31 07:38:33;;;;;;;5.53;5.07;;;18.50;57.30;;;;;;5048246;28;20186;-76
2024/01/31 07:40:59;;;;;;;5.50;5.00;;;18.40;57.20;;;;;;5054729;28;20183;-76
2024/01/31 07:43:25;;;;;;;5.72;5.22;;;18.40;57.20;;;;;;5054638;28;20193;-77
2024/01/31 07:45:51;;;;;;;5.50;5.00;;;18.50;57.30;;;;;;5053226;28;20213;-76
2024/01/31 07:48:17;;;;;;;5.47;4.97;;;18.40;57.30;;;;;;5054490;28;20197;-76
2024/01/31 07:50:43;;;;;;;6.22;5.68;;;18.40;57.30;;;;;;5036681;28;20194;-76
2024/01/31 07:53:09;;;;;;;6.00;5.40;;;18.40;57.30;;;;;;5054361;28;20692;-76
2024/01/31 07:55:35;;;;;;;5.60;5.10;;;18.40;57.30;;;;;;5052855;28;20213;-76
2024/01/31 07:58:01;;;;;;;5.80;5.25;;;18.40;57.30;;;;;;5056863;28;20205;-76
2024/01/31 08:00:27;;;;;;;5.10;4.70;;;18.40;57.30;;;;;;5064611;28;20204;-76
2024/01/31 08:02:52;;;;;;;5.75;5.25;;;18.50;57.30;;;;;;5045250;28;20273;-76
2024/01/31 08:05:18;;;;;;;5.90;5.40;;;18.50;57.30;;;;;;5043793;28;20212;-76
2024/01/31 08:07:45;;;;;;;5.20;4.80;;;18.50;57.30;;;;;;5059045;28;20228;-76
2024/01/31 08:10:12;;;;;;;5.65;5.15;;;18.50;57.30;;;;;;5052742;28;20273;-76
2024/01/31 08:12:40;;;;;;;5.47;4.97;;;18.40;57.30;;;;;;5052670;28;20211;-76
2024/01/31 08:15:07;;;;;;;5.70;5.20;;;18.50;57.40;;;;;;5048301;28;20230;-76
2024/01/31 08:17:32;;;;;;;6.90;4.78;;;18.50;57.30;;;;;;5049098;28;20222;-76
2024/01/31 08:19:58;;;;;;;5.43;4.93;;;18.50;57.40;;;;;;5053755;28;20715;-76
2024/01/31 08:22:24;;;;;;;5.78;5.18;;;18.40;57.30;;;;;;5052200;28;20190;-76
2024/01/31 08:24:50;;;;;;;5.40;4.90;;;18.50;57.40;;;;;;5053262;28;20186;-76
2024/01/31 08:27:18;;;;;;;5.38;4.97;;;18.50;57.40;;;;;;5053262;28;20205;-76
2024/01/31 08:29:45;;;;;;;5.55;5.05;;;18.40;57.40;;;;;;5060385;28;20190;-76
2024/01/31 08:32:10;;;;;;;5.28;4.80;;;18.50;57.40;;;;;;5053530;28;20256;-76
2024/01/31 08:34:37;;;;;;;5.75;5.22;;;18.40;57.30;;;;;;5043546;28;20190;-76
2024/01/31 08:37:03;;;;;;;6.15;5.20;;;18.50;57.40;;;;;;5085831;28;20190;-76
2024/01/31 08:39:29;;;;;;;6.05;5.45;;;18.40;57.40;;;;;;5068806;28;20225;-76
2024/01/31 08:41:55;;;;;;;5.22;4.75;;;18.50;57.50;;;;;;5035430;28;20194;-76
2024/01/31 08:44:23;;;;;;;5.43;4.97;;;18.50;57.40;;;;;;5059549;28;20252;-76
2024/01/31 08:46:48;;;;;;;5.97;5.38;;;18.50;57.40;;;;;;5051882;28;20253;-76
2024/01/31 08:49:14;;;;;;;5.35;4.85;;;18.50;57.50;;;;;;5059498;28;20214;-76
2024/01/31 08:51:41;;;;;;;5.93;5.32;;;18.50;57.50;;;;;;5042593;28;20196;-76
2024/01/31 08:54:07;;;;;;;6.18;5.57;;;18.50;57.50;;;;;;5043585;28;20248;-76
2024/01/31 08:56:34;;;;;;;5.28;4.78;;;18.40;57.40;;;;;;5052043;28;20259;-77
2024/01/31 08:59:00;;;;;;;5.65;5.07;;;18.50;57.50;;;;;;5048952;28;20186;-76
2024/01/31 09:01:26;;;;;;;5.82;5.15;;;18.50;57.50;;;;;;5051862;28;20186;-76
2024/01/31 09:03:52;;;;;;;5.38;4.90;;;18.50;57.50;;;;;;5035109;28;20194;-76
2024/01/31 09:06:18;;;;;;;5.85;5.35;;;18.50;57.50;;;;;;5050563;28;20249;-76
2024/01/31 09:08:43;;;;;;;5.85;5.35;;;18.50;57.50;;;;;;5042309;28;20202;-76
2024/01/31 09:11:09;;;;;;;5.40;4.90;;;18.50;57.40;;;;;;5051739;28;20259;-76
2024/01/31 09:13:35;;;;;;;5.90;5.40;;;18.50;57.50;;;;;;5051736;28;20213;-76
2024/01/31 09:16:01;;;;;;;6.10;5.50;;;18.50;57.50;;;;;;5058348;28;20213;-75
2024/01/31 09:18:28;;;;;;;5.82;5.22;;;18.50;57.50;;;;;;5028951;28;20249;-75
2024/01/31 09:20:54;;;;;;;6.10;5.60;;;18.50;57.50;;;;;;5084475;28;20236;-75
2024/01/31 09:23:21;;;;;;;5.95;5.45;;;18.50;57.50;;;;;;5051321;28;20194;-74
2024/01/31 09:25:47;;;;;;;6.10;5.60;;;18.50;57.50;;;;;;5036930;28;20234;-75
2024/01/31 09:28:12;;;;;;;5.97;5.47;;;18.50;57.50;;;;;;5052543;28;20665;-75
2024/01/31 09:30:38;;;;;;;6.20;5.70;;;18.50;57.50;;;;;;5044530;28;20658;-75
2024/01/31 09:33:04;;;;;;;5.93;5.43;;;18.50;57.60;;;;;;5051051;28;20217;-75
2024/01/31 09:35:31;;;;;;;6.07;5.45;;;18.50;57.60;;;;;;5029148;28;20290;-75
2024/01/31 09:37:57;;;;;;;6.60;5.80;;;18.50;57.60;;;;;;5063329;28;20560;-75
2024/01/31 09:40:23;;;;;;;5.78;5.18;;;18.50;57.60;;;;;;5049943;28;20196;-75
2024/01/31 09:42:54;;;;;;;6.22;5.65;;;18.50;57.60;;;;;;5058861;28;20193;-75
2024/01/31 09:45:22;;;;;;;6.68;6.00;;;18.50;57.60;;;;;;5051883;28;20214;-75
2024/01/31 09:47:49;;;;;;;6.63;6.03;;;18.50;57.60;;;;;;5040655;28;20197;-75
2024/01/31 09:50:15;;;;;;;6.13;5.60;;;18.50;57.60;;;;;;5052131;28;20685;-75
2024/01/31 09:52:42;;;;;;;6.20;5.70;;;18.50;57.60;;;;;;5074421;28;20274;-75
2024/01/31 09:55:10;;;;;;;7.00;6.30;;;18.50;57.60;;;;;;5050413;28;20214;-75
2024/01/31 09:57:39;;;;;;;6.32;5.72;;;18.50;57.60;;;;;;5050646;28;20190;-75
2024/01/31 10:00:05;;;;;;;6.07;5.47;;;18.60;57.60;;;;;;5073935;28;20240;-75
2024/01/31 10:02:40;;;;;;;6.68;6.07;;;18.50;57.50;;;;;;5051811;28;20230;-75
2024/01/31 10:05:06;;;;;;;6.68;6.07;;;18.60;57.70;;;;;;5066998;28;20245;-75
2024/01/31 10:07:32;;;;;;;7.25;6.57;;;18.60;57.60;;;;;;5050898;28;20190;-75
2024/01/31 10:10:00;;;;;;;6.22;5.63;;;18.50;57.60;;;;;;5050652;28;20568;-75
2024/01/31 10:12:26;;;;;;;5.90;5.40;;;18.60;57.60;;;;;;5051790;28;20241;-75
2024/01/31 10:14:52;;;;;;;6.70;6.07;;;18.60;57.60;;;;;;5050167;28;20191;-75
2024/01/31 10:17:22;;;;;;;6.05;5.55;;;18.60;57.60;;;;;;5051664;28;20191;-75
2024/01/31 10:19:51;;;;;;;6.43;5.72;;;18.60;57.60;;;;;;5050515;28;20178;-75
2024/01/31 10:22:18;;;;;;;6.38;5.78;;;18.60;57.60;;;;;;5050399;28;20209;-75
2024/01/31 10:24:50;;;;;;;7.20;6.50;;;18.60;57.60;;;;;;5043749;28;20200;-75
2024/01/31 10:27:20;;;;;;;6.60;6.05;;;18.60;57.70;;;;;;5044652;28;20206;-75
2024/01/31 10:29:46;;;;;;;6.70;6.05;;;18.60;57.60;;;;;;5051591;28;20190;-75
2024/01/31 10:32:15;;;;;;;6.00;5.50;;;18.60;57.60;;;;;;5050460;28;20202;-75
2024/01/31 10:34:45;;;;;;;6.15;5.60;;;18.60;57.60;;;;;;5033492;28;20181;-75
2024/01/31 10:37:12;;;;;;;6.25;5.68;;;18.60;57.60;;;;;;5050269;28;20186;-75
2024/01/31 10:39:39;;;;;;;5.13;4.72;;;18.60;57.70;;;;;;5050496;28;20186;-75
2024/01/31 10:42:06;;;;;;;6.38;5.78;;;18.60;57.60;;;;;;5067269;28;20190;-75
2024/01/31 10:44:37;;;;;;;5.85;5.30;;;18.60;57.70;;;;;;5041906;28;20205;-74
2024/01/31 10:47:05;;;;;;;6.38;5.78;;;18.60;57.70;;;;;;5050657;28;20252;-75
2024/01/31 10:49:31;;;;;;;6.32;5.72;;;18.60;57.70;;;;;;5037392;28;20187;-75
2024/01/31 10:52:03;;;;;;;5.70;5.13;;;18.60;57.90;;;;;;5056169;28;20206;-75
2024/01/31 10:54:35;;;;;;;5.82;5.32;;;18.60;57.70;;;;;;5049681;28;20182;-74
2024/01/31 10:57:04;;;;;;;6.55;5.95;;;18.60;57.80;;;;;;5081904;28;20265;-74
2024/01/31 10:59:36;;;;;;;6.70;5.75;;;18.60;57.80;;;;;;5050086;28;20236;-74
2024/01/31 11:02:03;;;;;;;7.43;6.72;;;18.60;57.80;;;;;;5054907;28;20190;-74
2024/01/31 11:04:29;;;;;;;6.88;6.28;;;18.60;57.80;;;;;;5064830;28;20183;-75
2024/01/31 11:07:03;;;;;;;6.85;6.35;;;18.60;57.80;;;;;;5025522;28;20217;-75
2024/01/31 11:09:29;;;;;;;6.55;5.90;;;18.70;57.80;;;;;;5053940;28;20264;-75
2024/01/31 11:12:14;;;;;;;5.85;5.30;;;18.60;57.70;;;;;;5042852;28;20195;-75
2024/01/31 11:14:45;;;;;;;6.30;5.55;;;18.60;57.80;;;;;;5036949;28;20189;-74
2024/01/31 11:17:17;;;;;;;6.50;5.90;;;18.60;57.80;;;;;;5051188;28;20193;-74
2024/01/31 11:19:59;;;;;;;6.55;5.85;;;18.70;57.80;;;;;;5042772;28;20187;-75
2024/01/31 11:22:26;;;;;;;5.40;4.90;;;18.70;57.90;;;;;;5049476;28;20666;-75
2024/01/31 11:24:54;;;;;;;6.32;5.13;;;18.70;58.00;;;;;;5054691;28;20186;-76
2024/01/31 11:27:21;;;;;;;5.15;4.72;;;18.70;58.30;;;;;;5079104;28;20688;-75
2024/01/31 11:29:51;;;;;;;6.00;5.40;;;18.70;58.20;;;;;;5053506;28;20265;-75
2024/01/31 11:32:18;;;;;;;6.10;5.30;;;18.70;58.20;;;;;;5070030;28;20218;-74
2024/01/31 11:34:44;;;;;;;5.00;4.60;;;18.70;58.20;;;;;;5058661;28;20174;-75
2024/01/31 11:37:10;;;;;;;5.43;4.95;;;18.70;58.30;;;;;;5086912;28;20197;-75
2024/01/31 11:39:36;;;;;;;5.40;4.97;;;18.70;58.20;;;;;;5058728;28;20221;-75
2024/01/31 11:42:02;;;;;;;5.15;4.65;;;18.70;58.30;;;;;;5053344;28;20218;-74
2024/01/31 11:44:29;;;;;;;5.35;4.78;;;18.70;58.30;;;;;;5051288;28;20658;-74
2024/01/31 11:46:56;;;;;;;5.38;4.88;;;18.70;58.20;;;;;;5057687;28;20210;-74
2024/01/31 11:49:25;;;;;;;5.22;4.60;;;18.70;58.20;;;;;;5041457;28;20708;-74
2024/01/31 11:51:51;;;;;;;5.30;4.90;;;18.70;58.20;;;;;;5054277;28;20217;-74
2024/01/31 11:54:17;;;;;;;4.95;4.55;;;18.70;58.20;;;;;;5086426;28;20182;-74
2024/01/31 11:56:43;;;;;;;5.88;5.38;;;18.70;58.20;;;;;;5052888;28;20622;-75
2024/01/31 11:59:09;;;;;;;5.03;4.63;;;18.70;58.30;;;;;;5055992;28;20254;-75
2024/01/31 12:01:35;;;;;;;5.00;4.50;;;18.70;58.20;;;;;;5034419;28;20183;-75
2024/01/31 12:04:02;;;;;;;5.22;4.72;;;18.70;58.20;;;;;;5052741;28;20202;-74
2024/01/31 12:06:27;;;;;;;4.95;4.50;;;18.70;58.20;;;;;;5054078;28;20218;-75
2024/01/31 12:08:54;;;;;;;4.90;4.50;;;18.70;58.20;;;;;;5052515;28;20238;-75
2024/01/31 12:11:20;;;;;;;5.30;4.80;;;18.70;58.30;;;;;;5091961;28;20607;-75
2024/01/31 12:13:46;;;;;;;4.65;4.18;;;18.70;58.30;;;;;;5065083;28;20241;-76
2024/01/31 12:16:12;;;;;;;5.00;4.60;;;18.70;58.30;;;;;;5058252;28;20241;-75
2024/01/31 12:18:42;;;;;;;5.13;4.63;;;18.70;58.30;;;;;;5051952;28;20279;-75
2024/01/31 12:21:11;;;;;;;5.10;4.70;;;18.70;58.30;;;;;;5064809;28;20201;-75
2024/01/31 12:23:37;;;;;;;4.38;4.00;;;18.70;58.30;;;;;;5060171;28;20197;-75
2024/01/31 12:26:03;;;;;;;4.30;3.90;;;18.70;58.30;;;;;;5096144;28;20206;-75
2024/01/31 12:28:29;;;;;;;4.60;4.20;;;18.80;58.30;;;;;;5061839;28;20185;-74
2024/01/31 12:30:56;;;;;;;4.85;4.40;;;18.70;58.30;;;;;;5040506;28;20190;-76
2024/01/31 12:33:22;;;;;;;4.20;3.90;;;18.70;58.30;;;;;;5060777;28;20209;-75
2024/01/31 12:35:48;;;;;;;4.40;4.10;;;18.80;58.40;;;;;;5046236;28;20208;-73
2024/01/31 12:38:14;;;;;;;4.30;3.90;;;18.70;58.30;;;;;;5068397;28;20219;-73
2024/01/31 12:40:40;;;;;;;4.35;3.95;;;18.80;58.40;;;;;;5064871;28;20207;-75
2024/01/31 12:43:06;;;;;;;4.55;3.97;;;18.80;58.40;;;;;;5055101;28;20276;-75
2024/01/31 12:45:33;;;;;;;4.25;3.85;;;18.80;58.30;;;;;;5056652;28;20217;-74